Durant, Iowa
Current Conditions -  °F | °C
As of 5:22 AM on Friday 24 Oct 2014 (Local Time) from KDVN Reporting Station
Haze Haze  
Wind Chill:   Ceiling: 400
Heat Index:   Visibility: 4mi
Dew Point:   Wind: 0mph
Humidity: 96%   Direction: NA
Pressure: 30.06"   Gusts: NA
Location:  41.6°N, 90.91°W
Report Text: KDVN 241022Z AUTO 00000KT 4SM BR OVC004 09/08 A3006 RMK AO2 T00890083 TSNO
Loading
Personal Weather Stations






























Interactive Weather Map
Tropical Storm Tracking
New forecast layout! Learn more

10-Day Weather Forecast

Advertisements
Track Severe Weather on mobile